Time;durP1;ratioP1;P1;durP2;ratioP2;P2;SDS_P1;SDS_P2;PMS_P1;PMS_P2;Temp;Humidity;BMP_temperature;BMP_pressure;BME280_temperature;BME280_humidity;BME280_pressure;Samples;Min_cycle;Max_cycle;Signal;HPM_P1;HPM_P2
2021/12/16 00:05:19;;;;;;;;;;;;;;;8.68;100.00;103433.84;5055392;28;19917;-35
2021/12/16 00:07:57;;;;;;;;;;;;;;;8.67;100.00;103426.75;5038102;28;20264;-35
2021/12/16 00:10:33;;;;;;;;;;;;;;;8.67;100.00;103426.75;5055697;28;19920;-35
2021/12/16 00:32:38;;;;;;;;;;;;;;;8.62;100.00;103431.78;4992631;28;20428;-35
2021/12/16 00:35:04;;;;;;;;;;;;;;;8.62;100.00;103437.16;4993180;28;20219;-35
2021/12/16 00:37:30;;;;;;;;;;;;;;;8.62;100.00;103437.16;4992887;28;19960;-35
2021/12/16 00:39:55;;;;;;;;;;;;;;;8.62;100.00;103443.41;4993558;28;19937;-35
2021/12/16 00:43:13;;;;;;;;;;;;;;;8.64;100.00;103437.88;4992962;28;19914;-35
2021/12/16 00:45:30;;;;;;;;;;;;;;;8.63;100.00;103436.16;4987877;28;20325;-35
2021/12/16 00:48:07;;;;;;;;;;;;;;;8.63;100.00;103438.84;4993235;28;19914;-35
2021/12/16 00:58:09;;;;;;;;;;;;;;;8.60;100.00;103441.88;4992666;28;19996;-35
2021/12/16 01:00:34;;;;;;;;;;;;;;;8.60;100.00;103428.41;5017249;28;19916;-35
2021/12/16 01:03:18;;;;;;;;;;;;;;;8.59;100.00;103434.75;5074765;28;20102;-35
2021/12/16 01:42:00;;;;;;;;;;;;;;;8.57;100.00;103459.19;4973214;28;20417;-35
2021/12/16 01:51:41;;;;;;;;;;;;;;;8.60;100.00;103474.25;5073426;28;19919;-35
2021/12/16 01:54:35;;;;;;;;;;;;;;;8.59;100.00;103467.13;5073790;28;20416;-35
2021/12/16 01:59:35;;;;;;;;;;;;;;;8.59;100.00;103484.19;5073369;28;20018;-35
2021/12/16 02:02:12;;;;;;;;;;;;;;;8.59;100.00;103484.19;5074377;28;19946;-35
2021/12/16 02:04:44;;;;;;;;;;;;;;;8.60;100.00;103479.63;5073516;28;19974;-35
2021/12/16 02:07:28;;;;;;;;;;;;;;;8.60;100.00;103479.63;5073242;28;19952;-35
2021/12/16 02:10:01;;;;;;;;;;;;;;;8.60;100.00;103482.34;5073465;28;19912;-35
2021/12/16 02:34:23;;;;;;;;;;;;;;;8.51;100.00;103492.19;5073553;28;19912;-35
2021/12/16 02:36:48;;;;;;;;;;;;;;;8.52;100.00;103486.63;5074106;28;19916;-35
2021/12/16 02:39:21;;;;;;;;;;;;;;;8.54;100.00;103497.28;5074097;28;19920;-35
2021/12/16 02:41:48;;;;;;;;;;;;;;;8.55;100.00;103493.59;5072902;28;20019;-35
2021/12/16 02:49:35;;;;;;;;;;;;;;;8.54;100.00;103505.38;5073154;28;20410;-35
2021/12/16 02:52:00;;;;;;;;;;;;;;;8.55;100.00;103500.84;5072842;28;19916;-35
2021/12/16 02:54:26;;;;;;;;;;;;;;;8.55;100.00;103503.53;5074360;28;20011;-35
2021/12/16 02:56:51;;;;;;;;;;;;;;;8.56;100.00;103507.91;5057837;28;20345;-35
2021/12/16 02:59:20;;;;;;;;;;;;;;;8.57;100.00;103501.50;5076798;28;20007;-35
2021/12/16 03:01:51;;;;;;;;;;;;;;;8.57;100.00;103498.81;5077234;28;19916;-35
2021/12/16 03:04:17;;;;;;;;;;;;;;;8.56;100.00;103494.44;5076517;28;20464;-35
2021/12/16 03:06:45;;;;;;;;;;;;;;;8.55;100.00;103492.75;5076351;28;19912;-35
2021/12/16 03:09:13;;;;;;;;;;;;;;;8.52;100.00;103491.19;5076270;28;19995;-35
2021/12/16 03:14:35;;;;;;;;;;;;;;;8.51;100.00;103490.34;5076259;28;19963;-35
2021/12/16 03:22:24;;;;;;;;;;;;;;;8.51;100.00;103494.88;5076079;28;20273;-35
2021/12/16 03:35:40;;;;;;;;;;;;;;;8.52;100.00;103497.41;5076430;28;20360;-35
2021/12/16 03:37:41;;;;;;;;;;;;;;;8.50;100.00;103495.88;5062981;28;19913;-35
2021/12/16 03:40:08;;;;;;;;;;;;;;;8.48;100.00;103490.63;5076212;28;20318;-35
2021/12/16 03:42:36;;;;;;;;;;;;;;;8.47;100.00;103497.03;5075360;28;20341;-35
2021/12/16 03:46:25;;;;;;;;;;;;;;;8.44;100.00;103497.34;5075433;28;19913;-36
2021/12/16 03:47:59;;;;;;;;;;;;;;;8.43;100.00;103510.97;5075269;28;19966;-35
2021/12/16 03:50:25;;;;;;;;;;;;;;;8.41;100.00;103505.75;5075574;28;19912;-35
2021/12/16 03:52:50;;;;;;;;;;;;;;;8.41;100.00;103513.81;5075214;28;19913;-35
2021/12/16 03:55:17;;;;;;;;;;;;;;;8.41;100.00;103519.22;5075735;28;19912;-35
2021/12/16 03:57:42;;;;;;;;;;;;;;;8.42;100.00;103520.91;5075164;28;19916;-35
2021/12/16 04:00:14;;;;;;;;;;;;;;;8.42;100.00;103515.50;5075525;28;20050;-35
2021/12/16 04:02:39;;;;;;;;;;;;;;;8.43;100.00;103513.66;5075738;28;19920;-35
2021/12/16 04:05:06;;;;;;;;;;;;;;;8.42;100.00;103523.59;5075110;28;19912;-35
2021/12/16 04:07:32;;;;;;;;;;;;;;;8.40;100.00;103525.63;5074873;28;19912;-35
2021/12/16 04:09:58;;;;;;;;;;;;;;;8.38;100.00;103530.28;5075773;28;19919;-35
2021/12/16 04:12:26;;;;;;;;;;;;;;;8.38;100.00;103532.16;5075524;28;20337;-35
2021/12/16 04:14:52;;;;;;;;;;;;;;;8.38;100.00;103518.66;5075344;28;19912;-35
2021/12/16 04:17:20;;;;;;;;;;;;;;;8.35;100.00;103519.78;5074965;28;19920;-35
2021/12/16 04:19:46;;;;;;;;;;;;;;;8.34;100.00;103519.94;5075678;28;20366;-35
2021/12/16 04:22:16;;;;;;;;;;;;;;;8.30;100.00;103522.09;5074896;28;19912;-35
2021/12/16 04:24:42;;;;;;;;;;;;;;;8.27;100.00;103517.84;5075187;28;19920;-35
2021/12/16 04:27:08;;;;;;;;;;;;;;;8.22;100.00;103513.91;5074745;28;19916;-35
2021/12/16 04:29:34;;;;;;;;;;;;;;;8.20;100.00;103515.91;5075552;28;19912;-35
2021/12/16 04:31:59;;;;;;;;;;;;;;;8.15;100.00;103508.28;5074470;28;19912;-35
2021/12/16 04:34:25;;;;;;;;;;;;;;;8.13;100.00;103512.09;5075427;28;19965;-35
2021/12/16 04:36:51;;;;;;;;;;;;;;;8.10;100.00;103509.69;5056677;28;19919;-35
2021/12/16 04:39:18;;;;;;;;;;;;;;;8.07;100.00;103505.47;5074877;28;19912;-35
2021/12/16 04:41:43;;;;;;;;;;;;;;;8.04;100.00;103507.59;5074930;28;19913;-35
2021/12/16 04:44:10;;;;;;;;;;;;;;;7.97;100.00;103507.38;5074383;28;19919;-35
2021/12/16 04:46:35;;;;;;;;;;;;;;;7.93;100.00;103504.13;5074184;28;19956;-35
2021/12/16 04:49:02;;;;;;;;;;;;;;;7.92;100.00;103506.97;5074158;28;19920;-35
2021/12/16 04:51:30;;;;;;;;;;;;;;;7.90;100.00;103509.78;5074062;28;19917;-35
2021/12/16 04:53:55;;;;;;;;;;;;;;;7.89;100.00;103518.03;5075006;28;19913;-35
2021/12/16 04:56:21;;;;;;;;;;;;;;;7.85;100.00;103516.63;5074192;28;19913;-35
2021/12/16 04:58:48;;;;;;;;;;;;;;;7.81;100.00;103518.78;5074221;28;19916;-35
2021/12/16 05:01:13;;;;;;;;;;;;;;;7.80;100.00;103514.38;5074724;28;19917;-35
2021/12/16 05:03:39;;;;;;;;;;;;;;;7.75;100.00;103511.28;5074421;28;19920;-35
2021/12/16 05:06:05;;;;;;;;;;;;;;;7.72;100.00;103520.50;5073781;28;20058;-35
2021/12/16 05:08:30;;;;;;;;;;;;;;;7.69;100.00;103518.09;5074580;28;19912;-35
2021/12/16 05:10:58;;;;;;;;;;;;;;;7.68;100.00;103520.94;5073925;28;20058;-35
2021/12/16 05:13:26;;;;;;;;;;;;;;;7.67;100.00;103520.09;5074167;28;19935;-35
2021/12/16 05:15:53;;;;;;;;;;;;;;;7.66;100.00;103522.91;5074685;28;19918;-35
2021/12/16 05:18:23;;;;;;;;;;;;;;;7.64;100.00;103522.22;5073456;28;20295;-35
2021/12/16 05:20:49;;;;;;;;;;;;;;;7.61;100.00;103530.59;5073799;28;20015;-35
2021/12/16 05:28:24;;;;;;;;;;;;;;;7.50;100.00;103528.91;5073763;28;20287;-35
2021/12/16 05:30:50;;;;;;;;;;;;;;;7.47;100.00;103540.00;5073927;28;19920;-35
2021/12/16 05:33:16;;;;;;;;;;;;;;;7.41;100.00;103529.78;5073634;28;20356;-35
2021/12/16 05:35:42;;;;;;;;;;;;;;;7.38;100.00;103533.63;5073639;28;20012;-35
2021/12/16 05:38:07;;;;;;;;;;;;;;;7.34;100.00;103537.59;5073999;28;20394;-35
2021/12/16 05:40:33;;;;;;;;;;;;;;;7.28;100.00;103546.25;5073247;28;19912;-35
2021/12/16 05:43:00;;;;;;;;;;;;;;;7.24;100.00;103550.22;5073394;28;19913;-35
2021/12/16 05:45:26;;;;;;;;;;;;;;;7.18;100.00;103551.66;5073614;28;19913;-35
2021/12/16 05:47:52;;;;;;;;;;;;;;;7.15;100.00;103543.00;5073717;28;19913;-35
2021/12/16 05:50:18;;;;;;;;;;;;;;;7.11;100.00;103555.03;5073620;28;19940;-35
2021/12/16 05:52:43;;;;;;;;;;;;;;;7.07;100.00;103559.84;5073116;28;19971;-35
2021/12/16 05:55:10;;;;;;;;;;;;;;;7.03;100.00;103552.19;5073451;28;19919;-35
2021/12/16 05:57:35;;;;;;;;;;;;;;;6.97;100.00;103549.09;5073332;28;20320;-35
2021/12/16 06:00:00;;;;;;;;;;;;;;;6.94;100.00;103568.22;5073434;28;19989;-35
2021/12/16 06:02:26;;;;;;;;;;;;;;;6.88;100.00;103575.97;5073472;28;20340;-35
2021/12/16 06:04:51;;;;;;;;;;;;;;;6.84;100.00;103582.66;5073204;28;19920;-36
2021/12/16 06:07:19;;;;;;;;;;;;;;;6.82;100.00;103576.53;5073323;28;19923;-35
2021/12/16 06:09:46;;;;;;;;;;;;;;;6.80;100.00;103576.69;5073807;28;20288;-36
2021/12/16 06:12:12;;;;;;;;;;;;;;;6.78;100.00;103578.66;5072893;28;20416;-35
2021/12/16 06:14:51;;;;;;;;;;;;;;;6.75;100.00;103581.63;5073765;28;20008;-35
2021/12/16 06:28:12;;;;;;;;;;;;;;;6.60;100.00;103585.72;5073352;28;19935;-35
2021/12/16 06:30:39;;;;;;;;;;;;;;;6.59;100.00;103592.09;5077112;28;19913;-35
2021/12/16 06:33:07;;;;;;;;;;;;;;;6.56;100.00;103595.88;5077043;28;20360;-35
2021/12/16 06:35:32;;;;;;;;;;;;;;;6.54;100.00;103597.00;5077269;28;19913;-35
2021/12/16 06:37:57;;;;;;;;;;;;;;;6.52;100.00;103596.31;5077682;28;20315;-35
2021/12/16 06:40:23;;;;;;;;;;;;;;;6.48;100.00;103597.56;5077103;28;19916;-35
2021/12/16 06:42:49;;;;;;;;;;;;;;;6.44;100.00;103602.34;5076672;28;19982;-35
2021/12/16 06:45:22;;;;;;;;;;;;;;;6.40;100.00;103598.25;5076784;28;19912;-35
2021/12/16 06:47:56;;;;;;;;;;;;;;;6.36;100.00;103597.66;5077206;28;19939;-35
2021/12/16 06:50:48;;;;;;;;;;;;;;;6.33;100.00;103597.09;5076884;28;19912;-35
2021/12/16 06:53:14;;;;;;;;;;;;;;;6.27;100.00;103603.00;5075858;28;19912;-35
2021/12/16 06:56:07;;;;;;;;;;;;;;;6.23;100.00;103602.41;5077564;28;19913;-35
2021/12/16 07:01:01;;;;;;;;;;;;;;;6.14;100.00;103613.97;5076317;28;19924;-35
2021/12/16 07:03:33;;;;;;;;;;;;;;;6.08;100.00;103609.97;5076342;28;19962;-35
2021/12/16 07:05:59;;;;;;;;;;;;;;;6.05;100.00;103610.28;5076515;28;19919;-35
2021/12/16 07:08:24;;;;;;;;;;;;;;;6.04;100.00;103619.28;5076755;28;19912;-35
2021/12/16 07:10:52;;;;;;;;;;;;;;;6.02;100.00;103621.28;5076240;28;19912;-36
2021/12/16 07:13:29;;;;;;;;;;;;;;;5.99;100.00;103620.69;5076827;28;19916;-35
2021/12/16 07:15:55;;;;;;;;;;;;;;;5.96;100.00;103621.81;5076826;28;20264;-35
2021/12/16 07:18:20;;;;;;;;;;;;;;;5.97;100.00;103622.66;5076166;28;19916;-36
2021/12/16 07:20:45;;;;;;;;;;;;;;;5.99;100.00;103628.72;5076734;28;19916;-35
2021/12/16 07:23:11;;;;;;;;;;;;;;;5.93;100.00;103641.72;5076240;28;19913;-35
2021/12/16 07:25:36;;;;;;;;;;;;;;;5.91;100.00;103653.56;5076330;28;19935;-35
2021/12/16 07:28:04;;;;;;;;;;;;;;;5.89;100.00;103659.03;5076291;28;19912;-35
2021/12/16 07:30:30;;;;;;;;;;;;;;;5.87;100.00;103657.47;5075864;28;20376;-35
2021/12/16 07:32:55;;;;;;;;;;;;;;;5.85;100.00;103662.13;5075856;28;20010;-35
2021/12/16 07:35:22;;;;;;;;;;;;;;;5.82;100.00;103657.03;5076102;28;20253;-35
2021/12/16 07:37:47;;;;;;;;;;;;;;;5.78;100.00;103659.13;5075476;28;19962;-35
2021/12/16 07:40:14;;;;;;;;;;;;;;;5.76;100.00;103671.84;5075144;28;19916;-35
2021/12/16 07:42:59;;;;;;;;;;;;;;;5.75;100.00;103677.31;5075486;28;20297;-35
2021/12/16 07:45:24;;;;;;;;;;;;;;;5.73;100.00;103685.50;5075644;28;19967;-35
2021/12/16 07:47:49;;;;;;;;;;;;;;;5.72;100.00;103688.31;5075215;28;19955;-35
2021/12/16 07:50:15;;;;;;;;;;;;;;;5.70;100.00;103696.50;5076012;28;19952;-35
2021/12/16 07:52:40;;;;;;;;;;;;;;;5.70;100.00;103704.53;5075528;28;19912;-35
2021/12/16 07:55:06;;;;;;;;;;;;;;;5.69;100.00;103710.91;5076246;28;19912;-35
2021/12/16 07:57:31;;;;;;;;;;;;;;;5.67;100.00;103713.72;5075549;28;20019;-35
2021/12/16 07:59:57;;;;;;;;;;;;;;;5.67;100.00;103723.63;5075480;28;19916;-35
2021/12/16 08:02:22;;;;;;;;;;;;;;;5.63;100.00;103714.97;5075868;28;19985;-35
2021/12/16 08:04:49;;;;;;;;;;;;;;;5.61;100.00;103713.38;5075579;28;19916;-35
2021/12/16 08:07:18;;;;;;;;;;;;;;;5.58;100.00;103716.34;5075564;28;20413;-36
2021/12/16 08:09:44;;;;;;;;;;;;;;;5.57;100.00;103720.84;5075491;28;19912;-35
2021/12/16 08:12:12;;;;;;;;;;;;;;;5.57;100.00;103722.69;5075197;28;19913;-35
2021/12/16 08:14:37;;;;;;;;;;;;;;;5.54;100.00;103725.63;5075060;28;19916;-35
2021/12/16 08:17:02;;;;;;;;;;;;;;;5.51;100.00;103731.22;5075859;28;19962;-35
2021/12/16 08:19:28;;;;;;;;;;;;;;;5.53;100.00;103718.53;5074926;28;19913;-35
2021/12/16 08:21:53;;;;;;;;;;;;;;;5.58;100.00;103732.44;5075613;28;19913;-35
2021/12/16 08:24:18;;;;;;;;;;;;;;;5.61;100.00;103734.84;5075341;28;19912;-35
2021/12/16 08:26:45;;;;;;;;;;;;;;;5.61;100.00;103737.53;5074880;28;19919;-35
2021/12/16 08:29:11;;;;;;;;;;;;;;;5.61;100.00;103740.22;5075107;28;19912;-35
2021/12/16 08:31:36;;;;;;;;;;;;;;;5.63;100.00;103740.97;5075272;28;20229;-35
2021/12/16 08:34:02;;;;;;;;;;;;;;;5.66;100.00;103746.94;5074951;28;19995;-35
2021/12/16 08:36:28;;;;;;;;;;;;;;;5.67;100.00;103761.22;5075489;28;19970;-35
2021/12/16 08:38:53;;;;;;;;;;;;;;;5.70;100.00;103752.88;5074671;28;20372;-35
2021/12/16 08:41:21;;;;;;;;;;;;;;;5.72;100.00;103747.41;5074555;28;19912;-35
2021/12/16 08:43:46;;;;;;;;;;;;;;;5.77;100.00;103747.88;5074197;28;20360;-35
2021/12/16 08:46:13;;;;;;;;;;;;;;;5.79;100.00;103765.53;5074381;28;19971;-35
2021/12/16 08:48:40;;;;;;;;;;;;;;;5.79;100.00;103762.84;5074353;28;19934;-35
2021/12/16 08:51:06;;;;;;;;;;;;;;;5.81;100.00;103760.06;5073507;28;19962;-35
2021/12/16 08:53:31;;;;;;;;;;;;;;;5.84;100.00;103775.91;5074629;28;19964;-36
2021/12/16 08:55:58;;;;;;;;;;;;;;;5.86;100.00;103782.88;5074598;28;19916;-35
2021/12/16 08:58:24;;;;;;;;;;;;;;;5.88;100.00;103777.34;5074945;28;19920;-35
2021/12/16 09:00:55;;;;;;;;;;;;;;;5.92;100.00;103777.00;5074085;28;19920;-36
2021/12/16 09:03:20;;;;;;;;;;;;;;;5.98;100.00;103774.78;5074118;28;19912;-35
2021/12/16 09:05:45;;;;;;;;;;;;;;;6.00;100.00;103783.53;5074039;28;19916;-36
2021/12/16 09:08:10;;;;;;;;;;;;;;;6.03;100.00;103794.03;5073807;28;19913;-35
2021/12/16 09:10:36;;;;;;;;;;;;;;;6.05;100.00;103786.69;5074035;28;19923;-35
2021/12/16 09:13:03;;;;;;;;;;;;;;;6.10;100.00;103779.97;5073946;28;20351;-36
2021/12/16 09:15:31;;;;;;;;;;;;;;;6.14;100.00;103793.97;5073956;28;20001;-35
2021/12/16 09:17:57;;;;;;;;;;;;;;;6.18;100.00;103790.06;5073588;28;20388;-36
2021/12/16 09:20:22;;;;;;;;;;;;;;;6.24;100.00;103786.84;5074108;28;19912;-35
2021/12/16 09:22:47;;;;;;;;;;;;;;;6.31;100.00;103789.88;5073834;28;19924;-36
2021/12/16 09:25:13;;;;;;;;;;;;;;;6.35;100.00;103800.25;5074336;28;19912;-36
2021/12/16 09:27:39;;;;;;;;;;;;;;;6.40;100.00;103795.31;5073648;28;19966;-36
2021/12/16 09:30:06;;;;;;;;;;;;;;;6.45;100.00;103786.88;5074014;28;19912;-36
2021/12/16 09:32:32;;;;;;;;;;;;;;;6.49;100.00;103785.63;5073405;28;19912;-35
2021/12/16 09:34:57;;;;;;;;;;;;;;;6.54;100.00;103793.25;5074103;28;19955;-35
2021/12/16 09:37:23;;;;;;;;;;;;;;;6.56;100.00;103792.16;5073329;28;20365;-35
2021/12/16 09:39:48;;;;;;;;;;;;;;;6.61;100.00;103800.69;5073577;28;19913;-35
2021/12/16 09:42:13;;;;;;;;;;;;;;;6.67;100.00;103800.13;5074064;28;19965;-36
2021/12/16 09:44:39;;;;;;;;;;;;;;;6.76;100.00;103793.13;5073695;28;19919;-35
2021/12/16 09:47:06;;;;;;;;;;;;;;;6.80;100.00;103802.63;5073481;28;20046;-35
2021/12/16 09:49:31;;;;;;;;;;;;;;;6.84;100.00;103797.84;5073178;28;19912;-35
2021/12/16 09:51:58;;;;;;;;;;;;;;;6.90;100.00;103792.75;5073417;28;19920;-35
2021/12/16 09:54:26;;;;;;;;;;;;;;;6.97;100.00;103775.06;5073894;28;19919;-35
2021/12/16 09:56:52;;;;;;;;;;;;;;;7.03;100.00;103799.72;5074214;28;19912;-35
2021/12/16 09:59:18;;;;;;;;;;;;;;;7.03;100.00;103797.03;5073930;28;19912;-36
2021/12/16 10:01:44;;;;;;;;;;;;;;;7.02;100.00;103801.56;5073254;28;19995;-36
2021/12/16 10:04:13;;;;;;;;;;;;;;;7.06;100.00;103799.47;5073077;28;19916;-35
2021/12/16 10:06:39;;;;;;;;;;;;;;;7.11;100.00;103794.53;5073216;28;19920;-35
2021/12/16 10:09:06;;;;;;;;;;;;;;;7.16;100.00;103795.81;5073395;28;20374;-35
2021/12/16 10:11:33;;;;;;;;;;;;;;;7.21;100.00;103792.72;5073922;28;20256;-36
2021/12/16 10:14:16;;;;;;;;;;;;;;;7.28;100.00;103793.91;5073004;28;19934;-35
2021/12/16 10:19:31;;;;;;;;;;;;;;;7.39;100.00;103793.78;5073499;28;19935;-36
2021/12/16 10:22:14;;;;;;;;;;;;;;;7.44;100.00;103790.66;5073295;28;20351;-35
2021/12/16 10:24:39;;;;;;;;;;;;;;;7.48;100.00;103779.50;5073300;28;20257;-36
2021/12/16 10:27:09;;;;;;;;;;;;;;;7.55;100.00;103784.31;5072994;28;19923;-35
2021/12/16 10:29:36;;;;;;;;;;;;;;;7.61;100.00;103789.13;5073360;28;19912;-36
2021/12/16 10:32:02;;;;;;;;;;;;;;;7.56;100.00;103784.16;5073451;28;19912;-35
2021/12/16 10:34:27;;;;;;;;;;;;;;;7.65;100.00;103788.72;5073495;28;19916;-36
2021/12/16 10:36:53;;;;;;;;;;;;;;;7.74;100.00;103792.41;5072873;28;19912;-35
2021/12/16 10:39:21;;;;;;;;;;;;;;;7.83;100.00;103796.13;5073130;28;19919;-36
2021/12/16 10:41:52;;;;;;;;;;;;;;;7.90;100.00;103787.31;5072570;28;20002;-36
2021/12/16 10:44:22;;;;;;;;;;;;;;;7.99;100.00;103785.63;5073040;28;19962;-35
2021/12/16 10:47:00;;;;;;;;;;;;;;;8.07;100.00;103785.75;5073525;28;19916;-36
2021/12/16 10:49:36;;;;;;;;;;;;;;;8.15;100.00;103794.00;5073094;28;20011;-35
2021/12/16 10:52:12;;;;;;;;;;;;;;;8.19;100.00;103794.53;5073332;28;20373;-36
2021/12/16 10:54:40;;;;;;;;;;;;;;;8.30;100.00;103805.19;5073050;28;19966;-35
2021/12/16 10:57:11;;;;;;;;;;;;;;;8.37;100.00;103808.19;5073203;28;19912;-36
2021/12/16 10:59:43;;;;;;;;;;;;;;;8.42;100.00;103804.06;5072716;28;20491;-36
2021/12/16 11:02:09;;;;;;;;;;;;;;;8.48;100.00;103806.16;5073477;28;19916;-36
2021/12/16 11:04:38;;;;;;;;;;;;;;;8.54;100.00;103810.16;5072309;28;19919;-35
2021/12/16 11:07:09;;;;;;;;;;;;;;;8.60;100.00;103814.97;5072451;28;20293;-36
2021/12/16 11:09:37;;;;;;;;;;;;;;;8.66;100.00;103813.53;5073193;28;19912;-35
2021/12/16 11:12:05;;;;;;;;;;;;;;;8.73;100.00;103809.22;5072595;28;20003;-35
2021/12/16 11:14:31;;;;;;;;;;;;;;;8.80;100.00;103804.97;5072921;28;19934;-35
2021/12/16 11:17:00;;;;;;;;;;;;;;;8.90;100.00;103819.28;5076183;28;20364;-35
2021/12/16 11:19:44;;;;;;;;;;;;;;;8.97;100.00;103816.81;5076409;28;20311;-36
2021/12/16 11:22:10;;;;;;;;;;;;;;;9.08;100.00;103813.06;5076069;28;19920;-36
2021/12/16 11:24:36;;;;;;;;;;;;;;;9.14;100.00;103807.09;5075984;28;19999;-35
2021/12/16 11:27:20;;;;;;;;;;;;;;;9.14;100.00;103807.94;5076170;28;19959;-35
2021/12/16 11:29:45;;;;;;;;;;;;;;;9.15;100.00;103806.09;5076189;28;19995;-36
2021/12/16 11:32:30;;;;;;;;;;;;;;;9.16;100.00;103813.19;5075612;28;20312;-36
2021/12/16 11:34:55;;;;;;;;;;;;;;;9.19;100.00;103815.59;5075824;28;20356;-36
2021/12/16 11:37:24;;;;;;;;;;;;;;;9.22;100.00;103807.19;5075826;28;19923;-36
2021/12/16 11:39:50;;;;;;;;;;;;;;;9.24;100.00;103802.50;5075718;28;19913;-35
2021/12/16 11:42:15;;;;;;;;;;;;;;;9.26;100.00;103805.88;5075743;28;19912;-36
2021/12/16 11:44:41;;;;;;;;;;;;;;;9.28;100.00;103793.94;5075862;28;19913;-35
2021/12/16 11:47:08;;;;;;;;;;;;;;;9.31;100.00;103802.75;5075798;28;19930;-36
2021/12/16 11:49:39;;;;;;;;;;;;;;;9.34;100.00;103807.84;5076113;28;20002;-35
2021/12/16 11:52:12;;;;;;;;;;;;;;;9.38;100.00;103799.28;5075149;28;19912;-36
2021/12/16 11:54:38;;;;;;;;;;;;;;;9.40;100.00;103791.88;5076162;28;20044;-36
2021/12/16 11:57:06;;;;;;;;;;;;;;;9.43;100.00;103798.84;5075115;28;19966;-36
2021/12/16 11:59:35;;;;;;;;;;;;;;;9.48;100.00;103791.97;5075868;28;19913;-36
2021/12/16 12:02:01;;;;;;;;;;;;;;;9.50;100.00;103778.31;5076089;28;19916;-36
2021/12/16 12:04:28;;;;;;;;;;;;;;;9.52;100.00;103779.88;5074832;28;19916;-36
2021/12/16 12:06:54;;;;;;;;;;;;;;;9.54;100.00;103787.81;5075118;28;19912;-36
2021/12/16 12:09:20;;;;;;;;;;;;;;;9.60;100.00;103786.34;5075195;28;20387;-36
2021/12/16 12:11:46;;;;;;;;;;;;;;;9.63;100.00;103783.34;5075009;28;19913;-36
2021/12/16 12:14:13;;;;;;;;;;;;;;;9.63;100.00;103784.19;5074757;28;20292;-35
2021/12/16 12:16:40;;;;;;;;;;;;;;;9.63;100.00;103780.66;5074963;28;19964;-36
2021/12/16 12:19:19;;;;;;;;;;;;;;;9.65;100.00;103782.19;5075075;28;19966;-36
2021/12/16 12:21:48;;;;;;;;;;;;;;;9.70;100.00;103781.72;5075451;28;20007;-36
2021/12/16 12:24:21;;;;;;;;;;;;;;;9.74;100.00;103775.88;5075393;28;20264;-36
2021/12/16 12:26:55;;;;;;;;;;;;;;;9.77;100.00;103780.97;5074889;28;20309;-36
2021/12/16 12:29:27;;;;;;;;;;;;;;;9.80;100.00;103779.78;5074809;28;19913;-35
2021/12/16 12:31:54;;;;;;;;;;;;;;;9.83;100.00;103770.53;5074773;28;19999;-36
2021/12/16 12:34:20;;;;;;;;;;;;;;;9.86;100.00;103779.19;5056647;28;20271;-36
2021/12/16 12:36:47;;;;;;;;;;;;;;;9.86;100.00;103773.78;5074389;28;19912;-36
2021/12/16 12:39:15;;;;;;;;;;;;;;;9.89;100.00;103776.16;5074272;28;19955;-36
2021/12/16 12:41:41;;;;;;;;;;;;;;;9.89;100.00;103776.16;5074383;28;19912;-35
2021/12/16 12:44:06;;;;;;;;;;;;;;;9.91;100.00;103762.53;5074723;28;19921;-35
2021/12/16 12:46:33;;;;;;;;;;;;;;;9.93;100.00;103766.75;5074572;28;19919;-35
2021/12/16 12:49:00;;;;;;;;;;;;;;;9.95;100.00;103780.94;5074050;28;19912;-35
2021/12/16 12:51:30;;;;;;;;;;;;;;;9.98;100.00;103782.50;5074255;28;19913;-35
2021/12/16 12:53:55;;;;;;;;;;;;;;;9.98;100.00;103780.66;5075030;28;20373;-35
2021/12/16 12:56:23;;;;;;;;;;;;;;;9.98;100.00;103783.34;5073954;28;20001;-35
2021/12/16 12:58:54;;;;;;;;;;;;;;;9.98;100.00;103786.06;5074192;28;20390;-35
2021/12/16 13:01:32;;;;;;;;;;;;;;;9.99;100.00;103776.94;5074141;28;19955;-35
2021/12/16 13:04:07;;;;;;;;;;;;;;;10.00;100.00;103773.25;5074711;28;19963;-35
2021/12/16 13:06:45;;;;;;;;;;;;;;;10.02;100.00;103773.09;5074454;28;20272;-35
2021/12/16 13:09:24;;;;;;;;;;;;;;;10.02;100.00;103765.81;5073738;28;20333;-35
2021/12/16 13:11:49;;;;;;;;;;;;;;;10.03;100.00;103764.81;5073902;28;20261;-35
2021/12/16 13:14:23;;;;;;;;;;;;;;;10.04;100.00;103769.19;5074133;28;19958;-35
2021/12/16 13:17:19;;;;;;;;;;;;;;;10.06;100.00;103766.38;5073756;28;19947;-35
2021/12/16 13:26:01;;;;;;;;;;;;;;;10.05;100.00;103770.94;5073458;28;19935;-36
2021/12/16 13:28:38;;;;;;;;;;;;;;;10.07;100.00;103774.31;5073697;28;19919;-35
2021/12/16 13:31:07;;;;;;;;;;;;;;;10.10;100.00;103772.28;5073782;28;19912;-35
2021/12/16 13:33:39;;;;;;;;;;;;;;;10.10;100.00;103777.69;5073235;28;19913;-35
2021/12/16 13:36:14;;;;;;;;;;;;;;;10.11;100.00;103776.72;5073758;28;19973;-35
2021/12/16 13:38:41;;;;;;;;;;;;;;;10.08;100.00;103780.56;5055802;28;20303;-35
2021/12/16 13:41:28;;;;;;;;;;;;;;;10.06;100.00;103779.88;5073767;28;19971;-35
2021/12/16 13:44:01;;;;;;;;;;;;;;;10.06;100.00;103783.44;5073588;28;20007;-35
2021/12/16 13:46:40;;;;;;;;;;;;;;;10.03;100.00;103782.88;5073712;28;19913;-35
2021/12/16 14:03:25;;;;;;;;;;;;;;;9.92;100.00;103786.69;4972606;28;19987;-35
2021/12/16 14:08:40;;;;;;;;;;;;;;;9.92;100.00;103793.94;4972313;28;19914;-35
2021/12/16 14:11:43;;;;;;;;;;;;;;;9.90;100.00;103785.97;4972681;28;19918;-35
2021/12/16 14:14:08;;;;;;;;;;;;;;;9.89;100.00;103786.13;4972023;28;19914;-35
2021/12/16 14:16:53;;;;;;;;;;;;;;;9.85;100.00;103791.00;4972045;28;20299;-35
2021/12/16 14:41:37;;;;;;;;;;;;;;;9.74;100.00;103805.59;4967883;28;19914;-35
2021/12/16 14:44:18;;;;;;;;;;;;;;;9.72;100.00;103807.59;4971525;28;19914;-35
2021/12/16 14:47:02;;;;;;;;;;;;;;;9.71;100.00;103814.03;4972398;28;19921;-35
2021/12/16 14:49:28;;;;;;;;;;;;;;;9.67;100.00;103811.78;4972087;28;19985;-35
2021/12/16 14:51:57;;;;;;;;;;;;;;;9.62;100.00;103817.63;4990083;28;19924;-34
2021/12/16 14:54:23;;;;;;;;;;;;;;;9.55;100.00;103813.81;4994798;28;19917;-34
2021/12/16 14:56:48;;;;;;;;;;;;;;;9.51;100.00;103812.44;4994762;28;20055;-34
2021/12/16 14:59:14;;;;;;;;;;;;;;;9.47;100.00;103820.00;4994683;28;20405;-34
2021/12/16 15:01:41;;;;;;;;;;;;;;;9.43;100.00;103815.91;4995040;28;20365;-34
2021/12/16 15:04:08;;;;;;;;;;;;;;;9.38;100.00;103818.22;5029734;28;20348;-34
2021/12/16 15:06:43;;;;;;;;;;;;;;;9.35;100.00;103815.78;5075878;28;19912;-35
2021/12/16 15:12:06;;;;;;;;;;;;;;;9.27;100.00;103807.59;4995021;28;20342;-35
2021/12/16 15:17:09;;;;;;;;;;;;;;;9.25;100.00;103812.28;4994300;28;19913;-35
2021/12/16 15:44:46;;;;;;;;;;;;;;;8.82;100.00;103829.94;4993934;28;20092;-35
2021/12/16 15:47:12;;;;;;;;;;;;;;;8.79;100.00;103824.84;4993834;28;20329;-35
2021/12/16 15:49:37;;;;;;;;;;;;;;;8.74;100.00;103836.09;5056568;28;19919;-36
2021/12/16 15:52:03;;;;;;;;;;;;;;;8.68;100.00;103839.34;5075422;28;19916;-36
2021/12/16 15:54:32;;;;;;;;;;;;;;;8.65;100.00;103845.03;5075513;28;19912;-36
2021/12/16 15:56:58;;;;;;;;;;;;;;;8.62;100.00;103849.88;5075099;28;19912;-36
2021/12/16 15:59:28;;;;;;;;;;;;;;;8.59;100.00;103848.34;5075401;28;19919;-36
2021/12/16 16:01:53;;;;;;;;;;;;;;;8.57;100.00;103860.25;5074905;28;19962;-36
2021/12/16 16:04:21;;;;;;;;;;;;;;;8.55;100.00;103849.59;5075394;28;19942;-36
2021/12/16 16:06:49;;;;;;;;;;;;;;;8.56;100.00;103858.53;5074924;28;19916;-36
2021/12/16 16:09:15;;;;;;;;;;;;;;;8.56;100.00;103870.19;5075375;28;20007;-36
2021/12/16 16:11:46;;;;;;;;;;;;;;;8.56;100.00;103875.59;5074836;28;19956;-36
2021/12/16 16:14:12;;;;;;;;;;;;;;;8.57;100.00;103873.72;5075576;28;19919;-36
2021/12/16 16:16:44;;;;;;;;;;;;;;;8.59;100.00;103871.72;5074510;28;20407;-36
2021/12/16 16:19:10;;;;;;;;;;;;;;;8.59;100.00;103877.13;5075437;28;19912;-36
2021/12/16 16:21:40;;;;;;;;;;;;;;;8.59;100.00;103874.44;5074871;28;19912;-36
2021/12/16 16:24:08;;;;;;;;;;;;;;;8.57;100.00;103869.19;5074508;28;19919;-36